Time;durP1;ratioP1;P1;durP2;ratioP2;P2;SDS_P1;SDS_P2;PMS_P1;PMS_P2;Temp;Humidity;BMP_temperature;BMP_pressure;BME280_temperature;BME280_humidity;BME280_pressure;Samples;Min_cycle;Max_cycle;Signal;HPM_P1;HPM_P2
2020/12/25 00:01:26;;;;;;;33.95;17.27;;;-1.40;90.20;;;;;;5034881;28;20099;-82
2020/12/25 00:03:52;;;;;;;38.55;20.92;;;-1.40;90.20;;;;;;5035111;28;20071;-83
2020/12/25 00:06:18;;;;;;;38.88;19.77;;;-1.30;90.20;;;;;;5035704;28;20025;-81
2020/12/25 00:08:45;;;;;;;27.17;14.63;;;-1.30;90.20;;;;;;5035659;28;20502;-82
2020/12/25 00:11:11;;;;;;;28.15;14.13;;;-1.30;90.10;;;;;;5017214;28;20454;-82
2020/12/25 00:13:37;;;;;;;34.63;18.73;;;-1.30;90.10;;;;;;5034531;28;20036;-81
2020/12/25 00:16:03;;;;;;;41.20;20.67;;;-1.30;90.20;;;;;;5034116;28;20032;-83
2020/12/25 00:18:29;;;;;;;36.45;18.10;;;-1.30;90.30;;;;;;5034460;28;20041;-82
2020/12/25 00:20:55;;;;;;;33.63;18.70;;;-1.30;90.20;;;;;;5017260;28;20018;-81
2020/12/25 00:23:21;;;;;;;33.40;18.25;;;-1.40;90.30;;;;;;5034912;28;20045;-82
2020/12/25 00:25:47;;;;;;;34.30;18.02;;;-1.40;90.40;;;;;;5034570;28;20014;-82
2020/12/25 00:28:13;;;;;;;27.48;15.35;;;-1.40;90.60;;;;;;5018159;28;20025;-81
2020/12/25 00:30:45;;;;;;;32.50;16.90;;;-1.40;90.60;;;;;;5034528;28;20061;-83
2020/12/25 00:33:11;;;;;;;28.38;16.20;;;-1.30;90.70;;;;;;5034389;28;20029;-81
2020/12/25 00:35:40;;;;;;;28.70;16.95;;;-1.30;90.60;;;;;;5016575;28;20025;-82
2020/12/25 00:38:06;;;;;;;30.02;17.85;;;-1.30;90.60;;;;;;5035768;28;20520;-84
2020/12/25 00:40:32;;;;;;;31.42;14.50;;;-1.30;90.60;;;;;;5035435;28;20092;-83
2020/12/25 00:42:58;;;;;;;30.30;18.23;;;-1.30;90.60;;;;;;5034637;28;20127;-82
2020/12/25 00:45:23;;;;;;;37.10;17.58;;;-1.20;90.70;;;;;;5041661;28;20039;-83
2020/12/25 00:47:49;;;;;;;30.75;17.45;;;-1.30;90.80;;;;;;5050319;28;20036;-83
2020/12/25 00:50:15;;;;;;;31.33;18.00;;;-1.20;90.90;;;;;;5035043;28;20029;-83
2020/12/25 00:52:41;;;;;;;24.92;13.95;;;-1.30;90.90;;;;;;5034684;28;20052;-84
2020/12/25 00:55:08;;;;;;;25.85;15.10;;;-1.30;91.10;;;;;;5018794;28;20021;-82
2020/12/25 00:57:33;;;;;;;31.35;17.48;;;-1.30;91.20;;;;;;5016461;28;20029;-81
2020/12/25 00:59:59;;;;;;;32.13;18.33;;;-1.30;91.30;;;;;;5034718;28;20036;-85
2020/12/25 01:02:28;;;;;;;30.15;16.55;;;-1.20;91.40;;;;;;5034365;28;20022;-84
2020/12/25 01:04:55;;;;;;;33.65;19.35;;;-1.20;91.40;;;;;;5034334;28;20037;-83
2020/12/25 01:07:20;;;;;;;28.73;16.52;;;-1.20;91.40;;;;;;5035856;28;20124;-83
2020/12/25 01:09:46;;;;;;;31.08;16.27;;;-1.20;91.30;;;;;;5035174;28;20021;-81
2020/12/25 01:12:12;;;;;;;23.92;16.15;;;-1.20;91.20;;;;;;5038538;28;20024;-81
2020/12/25 01:14:38;;;;;;;28.92;16.65;;;-1.20;91.30;;;;;;5035398;28;20482;-84
2020/12/25 01:17:04;;;;;;;26.70;15.80;;;-1.20;91.30;;;;;;5033735;28;20045;-82
2020/12/25 01:19:30;;;;;;;23.88;16.67;;;-1.10;91.60;;;;;;5033395;28;20041;-85
2020/12/25 01:21:55;;;;;;;30.35;16.08;;;-1.10;91.30;;;;;;5033273;28;20010;-83
2020/12/25 01:24:21;;;;;;;31.85;19.38;;;-1.00;91.20;;;;;;5033224;28;20022;-81
2020/12/25 01:26:47;;;;;;;32.40;17.77;;;-1.00;91.20;;;;;;5015121;28;20099;-81
2020/12/25 01:29:13;;;;;;;27.08;16.40;;;-1.00;91.20;;;;;;5033107;28;20018;-83
2020/12/25 01:31:39;;;;;;;31.02;16.08;;;-0.90;91.20;;;;;;5033616;28;20364;-82
2020/12/25 01:34:04;;;;;;;31.95;16.35;;;-0.90;91.00;;;;;;5033116;28;20053;-83
2020/12/25 01:36:30;;;;;;;25.92;14.88;;;-0.90;91.00;;;;;;5033527;28;20470;-84
2020/12/25 01:38:56;;;;;;;24.67;14.10;;;-0.90;91.00;;;;;;5034308;28;20033;-84
2020/12/25 01:41:22;;;;;;;26.17;15.27;;;-0.90;90.90;;;;;;5033124;28;20009;-84
2020/12/25 01:43:48;;;;;;;24.45;16.00;;;-0.90;90.90;;;;;;5033470;28;20103;-83
2020/12/25 01:46:15;;;;;;;21.88;12.18;;;-0.90;91.00;;;;;;5032852;28;20495;-84
2020/12/25 01:48:42;;;;;;;22.50;14.43;;;-0.90;90.90;;;;;;5033167;28;20021;-82
2020/12/25 01:51:11;;;;;;;26.55;15.55;;;-0.90;91.30;;;;;;5014906;28;20038;-83
2020/12/25 01:53:39;;;;;;;24.75;14.15;;;-0.90;91.10;;;;;;5015484;28;20025;-83
2020/12/25 01:56:05;;;;;;;29.77;14.93;;;-0.90;91.10;;;;;;5015361;28;20075;-84
2020/12/25 01:58:32;;;;;;;24.02;12.85;;;-0.90;91.20;;;;;;5033804;28;20057;-83
2020/12/25 02:00:58;;;;;;;26.77;15.00;;;-0.90;91.20;;;;;;5033786;28;20068;-84
2020/12/25 02:03:24;;;;;;;25.35;14.50;;;-0.80;91.30;;;;;;5015949;28;20420;-83
2020/12/25 02:05:50;;;;;;;25.73;14.50;;;-0.80;91.30;;;;;;5036381;28;20076;-85
2020/12/25 02:08:16;;;;;;;24.88;13.95;;;-0.80;91.40;;;;;;5034555;28;20017;-84
2020/12/25 02:10:42;;;;;;;24.23;13.13;;;-0.90;91.40;;;;;;5033189;28;20018;-84
2020/12/25 02:13:09;;;;;;;19.52;12.45;;;-0.80;91.50;;;;;;5034425;28;20025;-83
2020/12/25 02:15:35;;;;;;;20.23;12.50;;;-0.90;91.50;;;;;;5033379;28;20427;-84
2020/12/25 02:18:02;;;;;;;21.55;14.23;;;-0.80;91.70;;;;;;5032969;28;20111;-82
2020/12/25 02:20:28;;;;;;;23.98;13.60;;;-0.80;91.70;;;;;;5032537;28;20013;-83
2020/12/25 02:22:54;;;;;;;25.15;13.80;;;-0.80;91.60;;;;;;5015331;28;20037;-82
2020/12/25 02:25:20;;;;;;;20.85;12.70;;;-0.80;91.70;;;;;;5015135;28;20035;-83
2020/12/25 02:27:46;;;;;;;18.52;13.65;;;-0.80;91.80;;;;;;5033302;28;20456;-85
2020/12/25 02:30:14;;;;;;;21.52;11.63;;;-0.90;92.00;;;;;;5015399;28;20017;-84
2020/12/25 02:32:40;;;;;;;26.60;14.73;;;-0.90;92.40;;;;;;5015075;28;20146;-84
2020/12/25 02:35:06;;;;;;;26.95;17.63;;;-1.10;92.70;;;;;;5042779;28;20017;-85
2020/12/25 02:37:32;;;;;;;20.90;12.48;;;-1.00;93.00;;;;;;5036774;28;20025;-82
2020/12/25 02:39:58;;;;;;;24.10;15.55;;;-1.00;93.10;;;;;;5039247;28;20036;-83
2020/12/25 02:42:24;;;;;;;25.52;14.05;;;-1.00;93.40;;;;;;5048020;28;20027;-82
2020/12/25 02:44:50;;;;;;;24.92;14.32;;;-1.00;93.40;;;;;;5028651;28;20038;-81
2020/12/25 02:47:16;;;;;;;25.42;15.52;;;-1.00;93.50;;;;;;5048800;28;20029;-85
2020/12/25 02:49:42;;;;;;;23.02;12.60;;;-1.00;93.70;;;;;;5056322;28;20026;-81
2020/12/25 02:52:07;;;;;;;25.75;15.52;;;-1.00;93.80;;;;;;5018534;28;20041;-81
2020/12/25 02:54:33;;;;;;;27.65;18.38;;;-1.00;93.90;;;;;;5035926;28;20033;-84
2020/12/25 02:56:59;;;;;;;22.42;16.50;;;-1.00;94.10;;;;;;5037026;28;20026;-85
2020/12/25 02:59:25;;;;;;;18.42;13.07;;;-1.00;94.10;;;;;;5037908;28;20035;-84
2020/12/25 03:01:52;;;;;;;22.73;13.30;;;-1.00;94.00;;;;;;5037250;28;20530;-84
2020/12/25 03:04:19;;;;;;;18.27;14.07;;;-1.00;94.10;;;;;;5048982;28;20053;-84
2020/12/25 03:06:46;;;;;;;29.52;18.13;;;-1.00;94.10;;;;;;5038363;28;20155;-85
2020/12/25 03:09:12;;;;;;;19.42;15.02;;;-1.00;94.20;;;;;;5021760;28;20017;-86
2020/12/25 03:11:38;;;;;;;17.77;11.77;;;-1.00;94.30;;;;;;5040092;28;20094;-83
2020/12/25 03:14:04;;;;;;;24.42;16.90;;;-1.00;94.20;;;;;;5020197;28;20445;-83
2020/12/25 03:16:30;;;;;;;25.10;16.10;;;-1.00;94.40;;;;;;5039955;28;20029;-86
2020/12/25 03:18:56;;;;;;;22.80;15.63;;;-1.00;94.60;;;;;;5039507;28;20030;-84
2020/12/25 03:21:22;;;;;;;21.52;13.45;;;-1.00;94.50;;;;;;5036326;28;20517;-83
2020/12/25 03:23:48;;;;;;;23.60;14.30;;;-0.90;94.60;;;;;;5036047;28;20096;-84
2020/12/25 03:26:15;;;;;;;21.45;15.75;;;-1.00;94.60;;;;;;5035629;28;20104;-83
2020/12/25 03:28:41;;;;;;;23.58;14.52;;;-0.90;94.60;;;;;;5018179;28;20028;-86
2020/12/25 03:31:07;;;;;;;19.10;14.55;;;-0.90;94.70;;;;;;5036576;28;20026;-82
2020/12/25 03:33:33;;;;;;;20.38;12.40;;;-0.90;94.80;;;;;;5017976;28;20112;-82
2020/12/25 03:36:00;;;;;;;19.92;15.35;;;-0.90;94.70;;;;;;5035410;28;20017;-86
2020/12/25 03:38:26;;;;;;;19.58;14.40;;;-0.90;94.70;;;;;;5035494;28;20039;-83
2020/12/25 03:40:52;;;;;;;20.38;11.48;;;-0.90;94.70;;;;;;5036109;28;20368;-83
2020/12/25 03:43:18;;;;;;;21.15;14.15;;;-0.90;94.70;;;;;;5019238;28;20033;-83
2020/12/25 03:45:45;;;;;;;22.13;14.20;;;-1.00;94.70;;;;;;5038083;28;20044;-82
2020/12/25 03:48:11;;;;;;;10.30;9.25;;;-1.00;94.80;;;;;;5036753;28;20032;-82
2020/12/25 03:50:37;;;;;;;17.42;12.88;;;-0.90;94.60;;;;;;5036561;28;20029;-83
2020/12/25 03:53:03;;;;;;;20.38;12.93;;;-1.00;94.70;;;;;;5017392;28;20030;-84
2020/12/25 03:55:28;;;;;;;13.57;10.20;;;-1.10;94.70;;;;;;5035299;28;20040;-82
2020/12/25 03:57:54;;;;;;;17.70;11.77;;;-1.00;94.90;;;;;;5035697;28;20037;-85
2020/12/25 04:00:20;;;;;;;13.93;10.52;;;-1.10;94.80;;;;;;5035229;28;20027;-86
2020/12/25 04:02:48;;;;;;;15.73;11.05;;;-1.00;94.90;;;;;;5036009;28;20072;-86
2020/12/25 04:05:14;;;;;;;16.55;11.90;;;-1.00;94.70;;;;;;5036460;28;20046;-85
2020/12/25 04:07:40;;;;;;;15.48;12.13;;;-1.10;94.80;;;;;;5036060;28;20416;-86
2020/12/25 04:10:06;;;;;;;12.50;9.93;;;-1.00;94.90;;;;;;5035579;28;20048;-83
2020/12/25 04:12:32;;;;;;;17.80;12.07;;;-1.10;94.90;;;;;;5034320;28;20076;-83
2020/12/25 04:14:58;;;;;;;17.13;11.10;;;-1.10;95.00;;;;;;5019213;28;20029;-82
2020/12/25 04:17:24;;;;;;;15.20;7.57;;;-1.10;94.80;;;;;;5042331;28;20067;-82
2020/12/25 04:19:50;;;;;;;15.50;10.35;;;-1.10;95.00;;;;;;5040620;28;20434;-82
2020/12/25 04:22:16;;;;;;;13.57;9.23;;;-1.10;95.10;;;;;;5037010;28;20040;-84
2020/12/25 04:24:41;;;;;;;22.02;11.20;;;-1.10;95.00;;;;;;5036081;28;20124;-84
2020/12/25 04:27:07;;;;;;;12.95;9.38;;;-1.10;95.10;;;;;;5017915;28;20020;-84
2020/12/25 04:29:33;;;;;;;15.13;9.10;;;-1.00;95.00;;;;;;5017773;28;20034;-84
2020/12/25 04:31:59;;;;;;;14.95;9.18;;;-1.00;94.90;;;;;;5035744;28;20018;-85
2020/12/25 04:34:25;;;;;;;12.57;9.15;;;-1.00;94.90;;;;;;5035479;28;20080;-82
2020/12/25 04:36:50;;;;;;;13.18;7.97;;;-1.00;94.80;;;;;;5035319;28;20022;-84
2020/12/25 04:39:16;;;;;;;12.02;8.60;;;-1.10;94.80;;;;;;5034807;28;20029;-83
2020/12/25 04:41:42;;;;;;;15.10;8.60;;;-1.10;94.80;;;;;;5034141;28;20381;-82
2020/12/25 04:44:08;;;;;;;17.20;9.38;;;-1.10;94.90;;;;;;5034512;28;20526;-83
2020/12/25 04:46:34;;;;;;;14.55;9.30;;;-1.10;95.10;;;;;;5017792;28;20083;-84
2020/12/25 04:49:04;;;;;;;13.10;8.63;;;-1.10;95.10;;;;;;5038092;28;20033;-85
2020/12/25 04:51:30;;;;;;;14.80;9.77;;;-1.10;95.00;;;;;;5053770;28;20018;-86
2020/12/25 04:53:55;;;;;;;13.73;8.13;;;-1.20;95.10;;;;;;5051306;28;20021;-85
2020/12/25 04:56:27;;;;;;;12.43;9.80;;;-1.10;95.30;;;;;;5036763;28;20072;-83
2020/12/25 04:58:53;;;;;;;12.70;9.45;;;-1.10;95.10;;;;;;5016428;28;20188;-82
2020/12/25 05:01:19;;;;;;;12.33;8.70;;;-1.20;95.20;;;;;;5018284;28;20025;-83
2020/12/25 05:03:49;;;;;;;15.10;9.45;;;-1.10;95.40;;;;;;5037413;28;20286;-84
2020/12/25 05:06:17;;;;;;;12.38;8.65;;;-1.10;95.40;;;;;;5015891;28;20049;-83
2020/12/25 05:08:44;;;;;;;8.10;4.95;;;-1.00;95.30;;;;;;5014227;28;20117;-85
2020/12/25 05:11:12;;;;;;;12.65;8.48;;;-1.00;95.30;;;;;;4996734;28;20506;-86
2020/12/25 05:13:52;;;;;;;11.88;8.98;;;-1.00;95.30;;;;;;5014783;28;20422;-86
2020/12/25 05:16:20;;;;;;;15.95;9.90;;;-1.00;95.30;;;;;;5014110;28;20081;-85
2020/12/25 05:18:51;;;;;;;11.88;8.60;;;-1.00;95.30;;;;;;5014083;28;20101;-86
2020/12/25 05:21:19;;;;;;;12.20;7.63;;;-1.00;95.40;;;;;;5014516;28;20065;-84
2020/12/25 05:23:47;;;;;;;11.55;7.75;;;-1.00;95.40;;;;;;5015841;28;20025;-84
2020/12/25 05:26:14;;;;;;;13.93;9.00;;;-1.00;95.30;;;;;;5015425;28;20020;-86
2020/12/25 05:28:49;;;;;;;14.52;8.27;;;-1.00;95.30;;;;;;5013412;28;20029;-83
2020/12/25 05:31:16;;;;;;;12.15;8.57;;;-1.00;95.30;;;;;;5014113;28;20398;-83
2020/12/25 05:33:42;;;;;;;11.18;6.32;;;-1.00;95.30;;;;;;5013329;28;20022;-82
2020/12/25 05:36:12;;;;;;;11.18;7.57;;;-1.00;95.20;;;;;;5013694;28;20064;-83
2020/12/25 05:38:40;;;;;;;13.07;7.68;;;-1.00;95.20;;;;;;5014272;28;20033;-84
2020/12/25 05:41:07;;;;;;;19.27;9.80;;;-1.10;95.20;;;;;;5013965;28;20076;-83
2020/12/25 05:43:34;;;;;;;14.95;7.97;;;-1.10;95.30;;;;;;5013737;28;20093;-85
2020/12/25 05:46:01;;;;;;;14.02;8.05;;;-1.20;95.00;;;;;;5014038;28;20030;-82
2020/12/25 05:48:26;;;;;;;15.10;8.70;;;-1.20;95.40;;;;;;5013467;28;20026;-83
2020/12/25 05:50:52;;;;;;;15.27;8.45;;;-1.20;95.20;;;;;;5013539;28;20393;-84
2020/12/25 05:53:19;;;;;;;16.33;9.23;;;-1.20;95.10;;;;;;5013690;28;20018;-83
2020/12/25 05:55:45;;;;;;;13.85;9.60;;;-1.20;95.20;;;;;;5027506;28;20030;-83
2020/12/25 05:58:15;;;;;;;14.43;9.73;;;-1.20;95.20;;;;;;5015552;28;20033;-85
2020/12/25 06:00:44;;;;;;;18.30;11.02;;;-1.20;95.20;;;;;;5014551;28;20108;-83
2020/12/25 06:03:15;;;;;;;19.80;11.38;;;-1.10;95.20;;;;;;5017082;28;20451;-84
2020/12/25 06:05:45;;;;;;;18.27;10.48;;;-1.20;95.10;;;;;;5026779;28;20042;-83
2020/12/25 06:08:26;;;;;;;16.38;11.35;;;-1.20;95.20;;;;;;5014900;28;20026;-84
2020/12/25 06:11:02;;;;;;;21.90;13.18;;;-1.20;95.10;;;;;;5023066;28;20037;-85
2020/12/25 06:13:42;;;;;;;18.33;12.32;;;-1.20;95.10;;;;;;5016261;28;20042;-85
2020/12/25 06:16:14;;;;;;;18.48;11.13;;;-1.20;95.00;;;;;;5020539;28;20025;-85
2020/12/25 06:19:07;;;;;;;25.48;10.85;;;-1.30;94.80;;;;;;5017536;28;20045;-85
2020/12/25 06:21:55;;;;;;;15.63;10.07;;;-1.40;94.80;;;;;;5031401;28;20073;-84
2020/12/25 06:24:26;;;;;;;16.27;9.48;;;-1.40;94.90;;;;;;5029914;28;20025;-86
2020/12/25 06:27:00;;;;;;;15.52;10.27;;;-1.40;95.00;;;;;;5024827;28;20108;-83
2020/12/25 06:29:27;;;;;;;17.90;10.38;;;-1.50;95.00;;;;;;5018675;28;20030;-83
2020/12/25 06:31:56;;;;;;;22.13;11.30;;;-1.50;95.00;;;;;;4999623;28;20026;-87
2020/12/25 06:34:21;;;;;;;16.20;8.18;;;-1.40;95.00;;;;;;5018833;28;20033;-85
2020/12/25 06:36:48;;;;;;;13.20;6.47;;;-1.40;95.00;;;;;;5025043;28;20487;-88
2020/12/25 06:39:17;;;;;;;16.45;8.05;;;-1.40;94.90;;;;;;5021833;28;20056;-86
2020/12/25 06:41:43;;;;;;;16.13;9.98;;;-1.50;94.80;;;;;;5021514;28;20018;-83
2020/12/25 06:44:17;;;;;;;12.80;8.73;;;-1.50;94.80;;;;;;5025526;28;20026;-91
2020/12/25 06:46:52;;;;;;;18.75;8.20;;;-1.50;94.70;;;;;;5017048;28;20113;-87
2020/12/25 06:49:21;;;;;;;19.17;8.88;;;-1.60;94.80;;;;;;5015164;28;20022;-86
2020/12/25 06:51:47;;;;;;;15.82;10.68;;;-1.60;94.60;;;;;;5027914;28;20041;-86
2020/12/25 06:54:21;;;;;;;15.80;9.43;;;-1.70;94.70;;;;;;5013394;28;20498;-86
2020/12/25 06:56:50;;;;;;;20.80;9.90;;;-1.70;94.70;;;;;;5018168;28;20026;-85
2020/12/25 06:59:21;;;;;;;14.68;8.93;;;-1.70;94.60;;;;;;5020080;28;20022;-85
2020/12/25 07:01:48;;;;;;;19.08;9.68;;;-1.70;94.40;;;;;;5028304;28;20022;-86
2020/12/25 07:04:23;;;;;;;17.30;10.85;;;-1.80;94.60;;;;;;5039798;28;20045;-85
2020/12/25 07:07:06;;;;;;;13.48;9.27;;;-1.90;94.60;;;;;;5023486;28;20057;-87
2020/12/25 07:09:44;;;;;;;15.73;9.23;;;-1.90;94.40;;;;;;5036327;28;20526;-88
2020/12/25 07:12:19;;;;;;;12.27;7.43;;;-2.00;94.30;;;;;;5012876;28;20099;-86
2020/12/25 07:14:45;;;;;;;21.98;9.95;;;-2.10;94.40;;;;;;5013013;28;20084;-85
2020/12/25 07:17:11;;;;;;;18.45;10.57;;;-2.10;94.40;;;;;;5037906;28;20022;-88
2020/12/25 07:19:39;;;;;;;18.17;11.10;;;-2.20;94.30;;;;;;5023766;28;20053;-87
2020/12/25 07:22:06;;;;;;;20.70;10.10;;;-2.20;94.60;;;;;;5048659;28;20387;-87
2020/12/25 07:24:32;;;;;;;22.38;11.43;;;-2.20;94.70;;;;;;5036145;28;20021;-86
2020/12/25 07:26:58;;;;;;;22.47;11.47;;;-2.20;94.50;;;;;;5036364;28;20026;-86
2020/12/25 07:29:24;;;;;;;18.95;11.50;;;-2.20;94.60;;;;;;5045315;28;20036;-85
2020/12/25 07:31:53;;;;;;;20.85;11.75;;;-2.30;94.60;;;;;;5037826;28;20040;-87
2020/12/25 07:34:24;;;;;;;31.40;13.70;;;-2.20;94.60;;;;;;5039332;28;20521;-86
2020/12/25 07:36:52;;;;;;;20.15;11.20;;;-2.30;94.50;;;;;;5037327;28;20033;-86
2020/12/25 07:39:19;;;;;;;22.45;12.70;;;-2.30;94.50;;;;;;5036080;28;20116;-85
2020/12/25 07:41:45;;;;;;;26.42;11.00;;;-2.30;94.70;;;;;;5036602;28;20359;-87
2020/12/25 07:44:11;;;;;;;21.55;11.80;;;-2.30;94.50;;;;;;5018904;28;20044;-86
2020/12/25 07:46:38;;;;;;;24.77;11.25;;;-2.30;94.60;;;;;;5019124;28;20467;-86
2020/12/25 07:49:06;;;;;;;23.90;12.95;;;-2.30;94.60;;;;;;5044630;28;20080;-86
2020/12/25 07:51:32;;;;;;;;;;;-2.40;94.70;;;;;;5044958;28;20029;-85
2020/12/25 07:53:59;;;;;;;22.92;14.35;;;-2.40;94.50;;;;;;5027421;28;20417;-85
2020/12/25 07:56:29;;;;;;;;;;;-2.40;94.50;;;;;;5038196;28;20088;-84
2020/12/25 07:58:55;;;;;;;28.13;13.18;;;-2.40;94.60;;;;;;5035219;28;19920;-86
2020/12/25 08:01:23;;;;;;;29.40;12.50;;;-2.40;94.60;;;;;;5035379;28;20021;-85
2020/12/25 08:03:50;;;;;;;30.52;16.23;;;-2.40;94.60;;;;;;5037046;28;20033;-85
2020/12/25 08:06:18;;;;;;;18.48;12.20;;;-2.40;94.80;;;;;;5018915;28;20045;-86
2020/12/25 08:09:03;;;;;;;21.58;10.95;;;-2.40;94.70;;;;;;5018097;28;20425;-85
2020/12/25 08:11:30;;;;;;;18.77;10.25;;;-2.50;94.10;;;;;;5031271;28;20025;-86
2020/12/25 08:14:02;;;;;;;30.63;12.85;;;-2.60;94.10;;;;;;5017658;28;20071;-87
2020/12/25 08:16:30;;;;;;;24.85;12.77;;;-2.60;94.30;;;;;;5017447;28;20026;-86
2020/12/25 08:18:56;;;;;;;24.95;14.07;;;-2.60;94.50;;;;;;5035098;28;20479;-85
2020/12/25 08:21:30;;;;;;;22.65;11.98;;;-2.60;94.50;;;;;;5017318;28;20048;-84
2020/12/25 08:23:56;;;;;;;26.55;14.65;;;-2.60;94.40;;;;;;5035516;28;20501;-85
2020/12/25 08:26:32;;;;;;;22.00;13.98;;;-2.70;94.20;;;;;;5017942;28;20036;-84
2020/12/25 08:28:58;;;;;;;27.42;13.52;;;-2.60;94.50;;;;;;5034827;28;20090;-87
2020/12/25 08:31:24;;;;;;;23.02;12.35;;;-2.70;94.20;;;;;;5017683;28;20025;-84
2020/12/25 08:33:55;;;;;;;34.28;15.32;;;-2.70;94.40;;;;;;5019844;28;20024;-87
2020/12/25 08:36:22;;;;;;;26.92;15.40;;;-2.70;94.40;;;;;;5019472;28;20021;-84
2020/12/25 08:38:48;;;;;;;26.38;15.30;;;-2.80;94.00;;;;;;5036213;28;20120;-86
2020/12/25 08:41:17;;;;;;;29.90;19.40;;;-2.80;94.20;;;;;;5035675;28;20033;-86
2020/12/25 08:43:45;;;;;;;32.65;15.45;;;-2.70;94.40;;;;;;5037167;28;20092;-87
2020/12/25 08:46:11;;;;;;;29.80;14.82;;;-2.70;94.30;;;;;;5034738;28;20017;-87
2020/12/25 08:48:51;;;;;;;26.90;13.80;;;-2.70;94.40;;;;;;5037948;28;20080;-87
2020/12/25 08:51:18;;;;;;;28.17;13.25;;;-2.70;94.20;;;;;;5036578;28;20493;-86
2020/12/25 08:53:52;;;;;;;27.77;16.00;;;-2.70;94.30;;;;;;5020492;28;20104;-87
2020/12/25 08:56:20;;;;;;;26.20;13.57;;;-2.80;94.20;;;;;;5055527;28;20028;-86
2020/12/25 08:58:59;;;;;;;27.98;15.82;;;-2.80;94.10;;;;;;5036815;28;20031;-86
2020/12/25 09:01:27;;;;;;;23.58;14.07;;;-2.80;94.40;;;;;;5015794;28;20024;-86
2020/12/25 09:03:53;;;;;;;29.70;15.80;;;-2.80;94.40;;;;;;5034593;28;20026;-85
2020/12/25 09:06:19;;;;;;;24.98;15.63;;;-2.70;94.20;;;;;;5016246;28;20093;-87
2020/12/25 09:08:45;;;;;;;21.08;10.90;;;-2.80;94.10;;;;;;5036492;28;20027;-86
2020/12/25 09:11:13;;;;;;;21.60;12.05;;;-2.80;94.30;;;;;;5037010;28;20029;-85
2020/12/25 09:13:40;;;;;;;28.98;15.57;;;-2.80;93.90;;;;;;5035247;28;20057;-85
2020/12/25 09:16:10;;;;;;;21.23;12.07;;;-3.00;93.60;;;;;;5034520;28;20047;-88
2020/12/25 09:18:36;;;;;;;20.73;13.38;;;-2.90;93.90;;;;;;5016690;28;20037;-86
2020/12/25 09:21:03;;;;;;;19.88;13.07;;;-2.90;94.20;;;;;;5033940;28;20079;-90
2020/12/25 09:23:30;;;;;;;24.17;13.68;;;-3.00;93.50;;;;;;5034223;28;20067;-85
2020/12/25 09:25:56;;;;;;;31.90;14.27;;;-3.00;93.80;;;;;;5034017;28;20033;-85
2020/12/25 09:28:24;;;;;;;26.55;13.48;;;-3.00;93.90;;;;;;5033857;28;20021;-87
2020/12/25 09:30:54;;;;;;;22.75;13.02;;;-3.10;93.70;;;;;;5033617;28;20026;-84
2020/12/25 09:33:20;;;;;;;21.88;13.18;;;-3.10;94.00;;;;;;5015512;28;20025;-87
2020/12/25 09:35:47;;;;;;;20.13;11.97;;;-3.10;93.90;;;;;;5036120;28;20025;-86
2020/12/25 09:38:13;;;;;;;20.45;12.15;;;-3.20;93.80;;;;;;5043628;28;20034;-86
2020/12/25 09:40:39;;;;;;;27.17;13.35;;;-3.20;94.10;;;;;;5039806;28;20076;-87
2020/12/25 09:43:05;;;;;;;29.73;13.80;;;-3.20;94.00;;;;;;5042270;28;20437;-86
2020/12/25 09:45:31;;;;;;;25.55;12.85;;;-3.10;94.30;;;;;;5036391;28;20032;-87
2020/12/25 09:47:57;;;;;;;29.23;16.27;;;-3.10;94.30;;;;;;5016867;28;20017;-86
2020/12/25 09:50:23;;;;;;;28.15;13.85;;;-3.00;94.20;;;;;;5041075;28;20026;-86
2020/12/25 09:52:49;;;;;;;27.73;14.77;;;-3.00;93.80;;;;;;5040366;28;20259;-85
2020/12/25 09:55:17;;;;;;;21.38;14.02;;;-3.00;94.00;;;;;;5040418;28;20048;-86
2020/12/25 09:57:43;;;;;;;26.65;14.15;;;-3.10;93.80;;;;;;5040389;28;20032;-86
2020/12/25 10:00:11;;;;;;;24.13;13.48;;;-3.10;94.00;;;;;;5042596;28;20574;-87
2020/12/25 10:02:37;;;;;;;19.33;12.65;;;-3.10;93.80;;;;;;5044211;28;20049;-87
2020/12/25 10:05:07;;;;;;;26.13;10.27;;;-3.10;93.70;;;;;;5028314;28;20037;-84
2020/12/25 10:07:34;;;;;;;21.35;11.60;;;-3.10;93.70;;;;;;5043040;28;20101;-85
2020/12/25 10:10:00;;;;;;;24.30;11.35;;;-3.20;93.30;;;;;;5045489;28;20076;-84
2020/12/25 10:12:26;;;;;;;23.30;11.15;;;-3.30;93.60;;;;;;5042723;28;20021;-87
2020/12/25 10:14:54;;;;;;;19.77;11.45;;;-3.30;93.40;;;;;;5041781;28;20025;-85
2020/12/25 10:17:22;;;;;;;24.00;11.68;;;-3.40;93.40;;;;;;5042770;28;20432;-87
2020/12/25 10:19:48;;;;;;;23.75;11.80;;;-3.40;93.20;;;;;;5045317;28;20029;-85
2020/12/25 10:22:14;;;;;;;20.65;13.40;;;-3.40;93.70;;;;;;5041417;28;20029;-85
2020/12/25 10:24:40;;;;;;;13.55;7.50;;;-3.40;93.50;;;;;;5024170;28;20030;-86
2020/12/25 10:27:06;;;;;;;11.30;7.70;;;-3.40;93.40;;;;;;5025756;28;20022;-85
2020/12/25 10:29:32;;;;;;;18.60;11.75;;;-3.50;93.10;;;;;;5042173;28;20017;-86
2020/12/25 10:32:00;;;;;;;23.45;13.15;;;-3.50;93.40;;;;;;5041330;28;20021;-87
2020/12/25 10:34:26;;;;;;;27.42;12.82;;;-3.40;93.40;;;;;;5040390;28;20017;-85
2020/12/25 10:36:52;;;;;;;12.25;7.50;;;-3.40;93.40;;;;;;5040879;28;20101;-87
2020/12/25 10:39:19;;;;;;;19.40;10.07;;;-3.40;93.50;;;;;;5044034;28;20095;-85
2020/12/25 10:41:45;;;;;;;24.70;12.90;;;-3.40;93.30;;;;;;5042804;28;20025;-86
2020/12/25 10:44:11;;;;;;;17.00;11.55;;;-3.50;93.40;;;;;;5039933;28;20032;-86
2020/12/25 10:46:37;;;;;;;19.05;9.32;;;-3.40;93.60;;;;;;5022812;28;20482;-86
2020/12/25 10:49:03;;;;;;;23.80;11.65;;;-3.40;93.60;;;;;;5040136;28;20025;-86
2020/12/25 10:51:29;;;;;;;13.02;9.20;;;-3.50;93.10;;;;;;5043469;28;20021;-87
2020/12/25 10:53:58;;;;;;;22.50;12.00;;;-3.50;93.30;;;;;;5044012;28;20028;-86
2020/12/25 10:56:29;;;;;;;26.98;13.88;;;-3.50;93.40;;;;;;5046798;28;20040;-86
2020/12/25 10:58:55;;;;;;;21.55;10.93;;;-3.40;93.80;;;;;;5059864;28;20052;-85
2020/12/25 11:01:29;;;;;;;22.80;11.73;;;-3.40;94.00;;;;;;5020679;28;20025;-87
2020/12/25 11:03:57;;;;;;;23.80;12.20;;;-3.40;93.50;;;;;;5037621;28;20454;-86
2020/12/25 11:06:33;;;;;;;20.50;12.15;;;-3.40;93.60;;;;;;5036240;28;20030;-86
2020/12/25 11:09:00;;;;;;;16.73;10.82;;;-3.40;93.70;;;;;;5036258;28;20378;-87
2020/12/25 11:11:29;;;;;;;24.33;13.35;;;-3.40;93.80;;;;;;5019418;28;20413;-82
2020/12/25 11:14:02;;;;;;;22.30;14.25;;;-3.40;93.90;;;;;;5041318;28;20085;-85
2020/12/25 11:16:30;;;;;;;21.55;12.30;;;-3.40;94.00;;;;;;5038744;28;20109;-86
2020/12/25 11:18:57;;;;;;;23.08;12.05;;;-3.40;94.00;;;;;;5037474;28;20033;-86
2020/12/25 11:21:25;;;;;;;18.60;11.82;;;-3.30;93.90;;;;;;5037292;28;20025;-85
2020/12/25 11:23:52;;;;;;;21.10;13.60;;;-3.30;93.90;;;;;;5039050;28;20351;-86
2020/12/25 11:26:23;;;;;;;24.77;11.80;;;-3.30;93.90;;;;;;5037263;28;20014;-87
2020/12/25 11:28:50;;;;;;;18.88;10.68;;;-3.30;94.00;;;;;;5018568;28;20037;-86
2020/12/25 11:31:16;;;;;;;15.30;8.35;;;-3.30;94.00;;;;;;5018633;28;20080;-87
2020/12/25 11:33:42;;;;;;;29.50;13.45;;;-3.30;93.90;;;;;;5034797;28;20064;-85
2020/12/25 11:36:12;;;;;;;24.10;10.23;;;-3.30;93.90;;;;;;5036118;28;20086;-85
2020/12/25 11:38:39;;;;;;;21.38;12.23;;;-3.40;93.70;;;;;;5036951;28;20032;-85
2020/12/25 11:41:07;;;;;;;22.15;13.20;;;-3.40;93.90;;;;;;5018370;28;20013;-85
2020/12/25 11:43:33;;;;;;;21.70;10.63;;;-3.30;93.80;;;;;;5035813;28;20023;-85
2020/12/25 11:45:59;;;;;;;22.35;11.52;;;-3.30;94.00;;;;;;5036173;28;20033;-84
2020/12/25 11:48:25;;;;;;;15.95;11.27;;;-3.30;94.00;;;;;;5039267;28;20024;-85
2020/12/25 11:50:51;;;;;;;26.23;13.13;;;-3.30;94.00;;;;;;5039296;28;20049;-86
2020/12/25 11:53:17;;;;;;;24.60;12.57;;;-3.20;93.70;;;;;;5038155;28;20017;-86
2020/12/25 11:55:43;;;;;;;19.23;11.38;;;-3.30;93.70;;;;;;5038662;28;20414;-86
2020/12/25 11:58:09;;;;;;;13.68;7.53;;;-3.30;93.10;;;;;;5042723;28;20117;-86
2020/12/25 12:00:35;;;;;;;20.27;13.75;;;-3.40;93.40;;;;;;5037526;28;20498;-86
2020/12/25 12:03:01;;;;;;;16.73;9.75;;;-3.40;93.70;;;;;;5046564;28;20017;-85
2020/12/25 12:05:27;;;;;;;9.32;6.95;;;-3.40;93.70;;;;;;5035264;28;20085;-84
2020/12/25 12:07:53;;;;;;;18.77;10.18;;;-3.40;93.70;;;;;;5040345;28;20057;-85
2020/12/25 12:10:18;;;;;;;19.50;11.98;;;-3.40;93.70;;;;;;5036858;28;20053;-87
2020/12/25 12:12:44;;;;;;;20.67;10.77;;;-3.50;93.80;;;;;;5017780;28;20028;-87
2020/12/25 12:15:10;;;;;;;14.68;7.43;;;-3.50;93.70;;;;;;5036544;28;20026;-87
2020/12/25 12:17:36;;;;;;;16.42;7.63;;;-3.50;93.20;;;;;;5036584;28;20029;-86
2020/12/25 12:20:02;;;;;;;17.55;10.63;;;-3.60;93.10;;;;;;5036815;28;20065;-86
2020/12/25 12:22:28;;;;;;;19.77;11.10;;;-3.60;93.50;;;;;;5036281;28;20386;-86
2020/12/25 12:24:53;;;;;;;17.13;8.27;;;-3.60;93.40;;;;;;5018061;28;20028;-86
2020/12/25 12:27:19;;;;;;;16.70;8.60;;;-3.60;93.10;;;;;;5035904;28;20148;-84
2020/12/25 12:29:48;;;;;;;17.70;11.20;;;-3.70;92.70;;;;;;5036470;28;20052;-85
2020/12/25 12:32:23;;;;;;;16.77;11.30;;;-3.70;93.20;;;;;;5037925;28;20044;-87